LTBS

Details ICAO LTBS (DLM)
Name DALAMAN
Region Turkey
Timezone Europe/Istanbul (UTC+3.0)
Plans Departing 234
Arriving 309
Stats Elevation 20 ft / 6 m (AMSL)
Location 36.713189° 28.792513°
Runways 1
Magnetic Variation 4.928° E
Sunrise 2018-06-19 02:47:13 UTC / 2018-06-19 05:47:13 Local
Sunset 2018-06-19 17:27:36 UTC / 2018-06-19 20:27:36 Local
Advertisement - Login to hide

Runways

ID Width Length Bearing (true) Bearing (mag) Surface Threshold Offset Overrun Length
01 148 ft / 45 m 9,851 ft / 3,003 m 15.24° 10.31° Concrete 0 ft / 0 m 197 ft / 60 m
19 148 ft / 45 m 9,851 ft / 3,003 m 195.25° 190.32° Concrete 0 ft / 0 m 197 ft / 60 m

Map

Weather


0- 5 10 15 20 25 30 35+ Temperature / ° C

Clouds and Precipitation
Forecast for 2018-06-19 12:00 UTC. Updated 3 hours ago

Ground ~20,000 ft ~40,000 ft Winds

METAR

LTBS 191150Z 22009KT 190V250 9999 SCT025 BKN180 28/21 Q1009 NOSIG RMK RWY19 21009KT 180V240

TAF

TAF LTBS 191040Z 1912/2012 21012KT 9999 SCT025 PROB40 TEMPO 1915/1918 -TSRA FEW020CB BKN030 BECMG 1916/1918 VRB02KT BECMG 1920/1922 CAVOK BECMG 2007/2009 21012KT SCT025

Frequencies

Recorded 127.35 MHz ATIS
Tower 118.50 MHz TWR
Approach 119.22 MHz APP
Ground 121.90 MHz GND
Tower 128.90 MHz TWR
Approach 129.50 MHz APP
Warning: Do not use this data for real-world aviation or navigation. No guarantee of current accuracy is given.